Islamorada, FL

11:36 PM EDT on August 24, 2016 (GMT -0400)
Oceana | | Change Station

Elev 26 ft 24.92 °N, 80.63 °W | Updated 4 seconds ago

Partly Cloudy
Partly Cloudy
85.5 °F
Feels Like 99 °F
N
4.5
Wind Variable Wind from East
Gusts 4.9 mph

Today
High -- | Low -- °F
--% Chance of Precip.
Yesterday
High -- | Low -- °F
Precip. -- in
Pressure 30.00 in
Visibility 10.0 miles
Clouds Few 2100 ft
Heat Index 99 °F
Dew Point 79 °F
Humidity 81%
Rainfall 0.00 in
Snow Depth Not available.
7:00 AM 7:48 PM
Waning Gibbous, 50% visible
METAR KHST 250258Z AUTO 01008KT 10SM FEW021 28/24 A2999 RMK AO2 SLP159 T02750238 58005
Pressure 30.00 in
Visibility 10.0 miles
Clouds Few 2100 ft
Heat Index 99 °F
Dew Point 79 °F
Humidity 81%
Rainfall 0.00 in
Snow Depth Not available.
7:00 AM 7:48 PM
Waning Gibbous, 50% visible
METAR KHST 250258Z AUTO 01008KT 10SM FEW021 28/24 A2999 RMK AO2 SLP159 T02750238 58005

10-Day Weather Forecast

Almanac

Astronomy

Aug. 24, 2016 Rise Set
Actual Time
Civil Twilight
Nautical Twilight
Astronomical Twilight
Moon
Length of Visible Light
Length of Day
Tomorrow will be .
, % of the Moon is Illuminated

Today's Extremes

State Highs State Lows

Community

WunderPhotos

Upload Photos

1,934,789 photos uploaded!

WunderBlog® & News

Nearby

Air Quality

  Air Quality AQ Index Pollutant
Not available.

Snow Depth

Station Depth Elevation

Earthquake Activity

City Distance Mag. Time & Date
Minimum magnitude displayed is 2.5.

Coastal Water Temperatures

Place Temperature

Stations

Nearby Weather Stations

Station Location Temp. Windchill Dew Point Humidity Wind Precip. Elev Updated Type
                   

Watches & Warnings

There are currently no watches in effect.